Atomic City, ID

11:50 AM MDT on September 19, 2014 (GMT -0600)
MyIdahoWeather.com | Change Station
CLOSE
Current Station
Personal Weather Station
Location: Blackfoot, ID
Elevation: 4534 ft
Nearby Weather Stations

Elev 4534 ft 43.27 °N, 112.52 °W | Updated 4 seconds ago

Clear
Clear
68.4 °F
Feels Like 68.4 °F
N
11.2
Wind Variable Wind from SE
Gusts 11.5 mph

Today
High -- | Low -- °F
--% Chance of Precip.
Yesterday
High -- | Low -- °F
Precip. -- in
7:15 AM 7:33 PM
Waning Crescent, 18% visible
Pressure 30.00 in
Visibility 6.0 miles
Clouds Clear
Dew Point 50 °F
Humidity 52%
Rainfall 0.00 in
Snow Depth 1 in , 0 in , 1 in
UV 5.7 out of 12
Pollen 6.40 out of 12
PM2.5 Moderate
Flu Activity Not available.
METAR KIDA 191653Z 22017KT 6SM HZ FU CLR 18/08 A3011 RMK AO2 SLP159 T01830078

More Conditions Fewer Conditions

Pressure 30.00 in
Visibility 6.0 miles
Clouds Clear
Dew Point 50 °F
Humidity 52%
Rainfall 0.00 in
Snow Depth 1 in , 0 in , 1 in
UV 5.7 out of 12
Pollen 6.40 out of 12
PM2.5 Moderate
Flu Activity Not available.
METAR KIDA 191653Z 22017KT 6SM HZ FU CLR 18/08 A3011 RMK AO2 SLP159 T01830078

More Conditions Fewer Conditions

10-Day Weather Forecast

Almanac

Astronomy

Sep. 19, 2014 Rise Set
Actual Time 7:15 AM MDT 7:33 PM MDT
Civil Twilight 6:46 AM MDT 8:02 PM MDT
Nautical Twilight 6:12 AM MDT 8:36 PM MDT
Astronomical Twilight 5:38 AM MDT 9:10 PM MDT
Moon 2:57 AM MDT 5:10 PM MDT
Length of Visible Light 13h 15m
Length of Day
12h 18m
Tomorrow will be 2m 56s shorter.
Waning Crescent, 18% of the Moon is Illuminated
Today
Waning Crescent
Sep 24
New
Oct 1
First Quarter
Oct 8
Full
Oct 15
Last Quarter

Today's Extremes

State Highs State Lows

Community

WunderPhotos

Upload Photos

1,754,668 photos uploaded!

Nearby

Air Quality

  Air Quality AQ Index Pollutant
Yesterday Good
PM2.5
Current Moderate
PM2.5
Friday Good
PM2.5
Saturday Good
PM2.5
Sunday Good
PM2.5
Monday Good
PM2.5

Snow Depth

Station Depth Elevation
Wildhorse Divide 1 in 6490 ft
Schweitzer Basin 0 in 6090 ft
Deadwood Summit 1 in 6860 ft
Bear Basin 0 in 5350 ft
Morgan Creek 1 in 7600 ft

Earthquake Activity

City Distance Mag. Time & Date
No recent earthquake activity has been reported nearby.
Minimum magnitude displayed is 2.5.

Coastal Water Temperatures

Place Temperature
No Stations Reporting

Nearby Weather Stations